createdAt,value
2016-12-11T00:00:18.723Z,21.67
2016-12-11T00:00:46.613Z,21.7
2016-12-11T00:01:14.796Z,21.82
2016-12-11T00:01:42.893Z,21.73
2016-12-11T00:02:10.957Z,21.76
2016-12-11T00:02:39.155Z,21.71
2016-12-11T00:03:07.391Z,21.77
2016-12-11T00:03:35.589Z,21.76
2016-12-11T00:04:03.598Z,21.78
2016-12-11T00:04:31.996Z,21.71
2016-12-11T00:05:00.041Z,21.73
2016-12-11T00:05:27.948Z,21.74
2016-12-11T00:05:56.120Z,21.85
2016-12-11T00:06:24.169Z,21.8
2016-12-11T00:06:52.071Z,21.74
2016-12-11T00:07:20.311Z,21.78
2016-12-11T00:07:48.372Z,21.77
2016-12-11T00:08:16.300Z,21.8
2016-12-11T00:08:44.238Z,21.77
2016-12-11T00:09:12.537Z,21.77
2016-12-11T00:09:40.464Z,21.78
2016-12-11T00:10:08.611Z,21.89
2016-12-11T00:10:36.545Z,21.77
2016-12-11T00:11:04.624Z,21.8
2016-12-11T00:11:32.698Z,21.78
2016-12-11T00:12:01.035Z,21.82
2016-12-11T00:12:29.413Z,21.77
2016-12-11T00:12:57.666Z,21.86
2016-12-11T00:13:25.911Z,21.9
2016-12-11T00:13:54.115Z,21.85
2016-12-11T00:14:22.190Z,21.86
2016-12-11T00:14:50.288Z,21.82
2016-12-11T00:15:18.279Z,21.8
2016-12-11T00:15:46.413Z,21.77
2016-12-11T00:16:14.478Z,21.78
2016-12-11T00:16:42.483Z,21.83
2016-12-11T00:17:10.371Z,21.82
2016-12-11T00:17:38.508Z,21.83
2016-12-11T00:18:06.618Z,21.77
2016-12-11T00:18:34.809Z,21.77
2016-12-11T00:19:03.006Z,21.77
2016-12-11T00:19:31.009Z,21.7
2016-12-11T00:19:59.091Z,21.77
2016-12-11T00:20:27.310Z,21.74
2016-12-11T00:20:55.462Z,21.73
2016-12-11T00:21:23.548Z,21.73
2016-12-11T00:21:51.598Z,21.64
2016-12-11T00:22:19.622Z,21.76
2016-12-11T00:22:47.791Z,21.74
2016-12-11T00:23:16.053Z,21.73
2016-12-11T00:23:44.330Z,21.83
2016-12-11T00:24:12.463Z,21.74
2016-12-11T00:24:40.604Z,21.77
2016-12-11T00:25:08.666Z,21.78
2016-12-11T00:25:36.712Z,21.85
2016-12-11T00:26:04.889Z,21.78
2016-12-11T00:26:32.967Z,21.83
2016-12-11T00:27:00.981Z,21.85
2016-12-11T00:27:29.189Z,21.9
2016-12-11T00:27:57.512Z,21.86
2016-12-11T00:28:25.643Z,21.83
2016-12-11T00:28:53.899Z,21.83
2016-12-11T00:29:22.103Z,21.85
2016-12-11T00:29:50.056Z,21.92
2016-12-11T00:30:17.953Z,21.85
2016-12-11T00:30:45.994Z,21.92
2016-12-11T00:31:14.199Z,21.86
2016-12-11T00:31:42.458Z,21.86
2016-12-11T00:32:10.527Z,21.83
2016-12-11T00:32:38.780Z,21.85
2016-12-11T00:33:06.869Z,21.85
2016-12-11T00:33:34.970Z,21.89
2016-12-11T00:34:03.098Z,21.99
2016-12-11T00:34:31.285Z,21.96
2016-12-11T00:34:59.256Z,22.02
2016-12-11T00:35:27.478Z,21.97
2016-12-11T00:35:55.701Z,21.93
2016-12-11T00:36:23.699Z,21.92
2016-12-11T00:36:51.965Z,21.97
2016-12-11T00:37:20.489Z,22
2016-12-11T00:37:48.794Z,21.94
2016-12-11T00:38:16.958Z,22
2016-12-11T00:38:45.043Z,21.97
2016-12-11T00:39:13.053Z,21.96
2016-12-11T00:39:41.279Z,21.97
2016-12-11T00:40:09.346Z,21.94
2016-12-11T00:40:37.536Z,21.96
2016-12-11T00:41:05.662Z,21.99
2016-12-11T00:41:33.917Z,21.99
2016-12-11T00:42:02.077Z,22
2016-12-11T00:42:30.187Z,22.02
2016-12-11T00:42:58.483Z,22.05
2016-12-11T00:43:26.646Z,22
2016-12-11T00:43:54.759Z,22.02
2016-12-11T00:44:22.961Z,22.07
2016-12-11T00:44:51.269Z,21.99
2016-12-11T00:45:19.413Z,22
2016-12-11T00:45:47.699Z,21.97
2016-12-11T00:46:15.744Z,21.99
2016-12-11T00:46:43.725Z,22
2016-12-11T00:47:11.647Z,21.99
2016-12-11T00:47:39.850Z,21.99
2016-12-11T00:48:07.766Z,22
2016-12-11T00:48:35.843Z,22.02
2016-12-11T00:49:04.044Z,22
2016-12-11T00:49:32.175Z,22.02
2016-12-11T00:50:00.170Z,22
2016-12-11T00:50:28.208Z,21.94
2016-12-11T00:50:56.244Z,22
2016-12-11T00:51:24.500Z,22.07
2016-12-11T00:51:52.541Z,22
2016-12-11T00:52:20.733Z,22.14
2016-12-11T00:52:48.918Z,22.09
2016-12-11T00:53:16.861Z,22.14
2016-12-11T00:53:45.082Z,22.02
2016-12-11T00:54:13.056Z,22.09
2016-12-11T00:54:41.210Z,22.14
2016-12-11T00:55:09.232Z,22.07
2016-12-11T00:55:37.217Z,22.11
2016-12-11T00:56:05.399Z,22.09
2016-12-11T00:56:33.499Z,22.12
2016-12-11T00:57:01.675Z,22.08
2016-12-11T00:57:29.733Z,22.15
2016-12-11T00:57:57.992Z,22.11
2016-12-11T00:58:26.042Z,22.12
2016-12-11T00:58:54.048Z,22.15
2016-12-11T00:59:22.135Z,22.22
2016-12-11T00:59:50.194Z,22.16
2016-12-11T01:00:18.360Z,22.12
2016-12-11T01:00:46.584Z,22.08
2016-12-11T01:01:14.639Z,22.11
2016-12-11T01:01:42.687Z,22.12
2016-12-11T01:02:10.810Z,22.12
2016-12-11T01:02:38.955Z,22.11
2016-12-11T01:03:07.196Z,22.12
2016-12-11T01:03:35.450Z,22.12
2016-12-11T01:04:03.635Z,22.15
2016-12-11T01:04:31.790Z,22.14
2016-12-11T01:04:59.882Z,22.15
2016-12-11T01:05:28.015Z,22.12
2016-12-11T01:05:56.266Z,22.12
2016-12-11T01:06:24.500Z,22.16
2016-12-11T01:06:52.732Z,22.18
2016-12-11T01:07:21.022Z,22.14
2016-12-11T01:07:49.177Z,22.15
2016-12-11T01:08:17.358Z,22.22
2016-12-11T01:08:45.600Z,22.14
2016-12-11T01:09:13.714Z,22.14
2016-12-11T01:09:41.951Z,22.15
2016-12-11T01:10:10.057Z,22.14
2016-12-11T01:10:38.210Z,22.15
2016-12-11T01:11:06.274Z,22.23
2016-12-11T01:11:34.395Z,22.16
2016-12-11T01:12:02.400Z,22.14
2016-12-11T01:12:30.431Z,22.2
2016-12-11T01:12:58.619Z,22.15
2016-12-11T01:13:26.666Z,22.2
2016-12-11T01:13:54.793Z,22.24
2016-12-11T01:14:22.834Z,22.16
2016-12-11T01:14:51.095Z,22.18
2016-12-11T01:15:19.357Z,22.14
2016-12-11T01:15:47.487Z,22.23
2016-12-11T01:16:15.792Z,22.23
2016-12-11T01:16:43.734Z,22.16
2016-12-11T01:17:11.886Z,22.26
2016-12-11T01:17:40.017Z,22.14
2016-12-11T01:18:08.196Z,22.23
2016-12-11T01:18:36.202Z,22.24
2016-12-11T01:19:04.393Z,22.16
2016-12-11T01:19:32.405Z,22.16
2016-12-11T01:20:00.369Z,22.26
2016-12-11T01:20:28.433Z,22.18
2016-12-11T01:20:56.504Z,22.2
2016-12-11T01:21:24.491Z,22.18
2016-12-11T01:21:52.675Z,22.16
2016-12-11T01:22:20.942Z,22.22
2016-12-11T01:22:49.128Z,22.22
2016-12-11T01:23:17.166Z,22.23
2016-12-11T01:23:45.380Z,22.29
2016-12-11T01:24:13.483Z,22.26
2016-12-11T01:24:41.504Z,22.24
2016-12-11T01:25:09.660Z,22.23
2016-12-11T01:25:37.708Z,22.26
2016-12-11T01:26:05.752Z,22.26
2016-12-11T01:26:33.826Z,22.26
2016-12-11T01:27:01.862Z,22.3
2016-12-11T01:27:29.836Z,22.23
2016-12-11T01:27:57.977Z,22.22
2016-12-11T01:28:26.263Z,22.23
2016-12-11T01:28:54.227Z,22.26
2016-12-11T01:29:22.294Z,22.27
2016-12-11T01:29:50.342Z,22.27
2016-12-11T01:30:18.453Z,22.24
2016-12-11T01:30:46.603Z,22.3
2016-12-11T01:31:14.677Z,22.26
2016-12-11T01:31:42.586Z,22.27
2016-12-11T01:32:10.556Z,22.26
2016-12-11T01:32:38.624Z,22.23
2016-12-11T01:33:06.925Z,22.3
2016-12-11T01:33:35.159Z,22.16
2016-12-11T01:34:03.503Z,22.23
2016-12-11T01:34:31.568Z,22.16
2016-12-11T01:34:59.630Z,22.2
2016-12-11T01:35:27.509Z,22.18
2016-12-11T01:35:55.434Z,22.22
2016-12-11T01:36:23.636Z,22.23
2016-12-11T01:36:51.618Z,22.18
2016-12-11T01:37:19.621Z,22.3
2016-12-11T01:37:47.765Z,22.23
2016-12-11T01:38:15.787Z,22.18
2016-12-11T01:38:43.840Z,22.24
2016-12-11T01:39:11.993Z,22.26
2016-12-11T01:39:40.144Z,22.24
2016-12-11T01:40:08.308Z,22.18
2016-12-11T01:40:36.557Z,22.16
2016-12-11T01:41:04.733Z,22.23
2016-12-11T01:41:32.790Z,22.18
2016-12-11T01:42:01.004Z,22.16
2016-12-11T01:42:29.246Z,22.15
2016-12-11T01:42:57.316Z,22.12
2016-12-11T01:43:25.483Z,22.14
2016-12-11T01:43:53.369Z,22.23
2016-12-11T01:44:21.249Z,22.11
2016-12-11T01:44:49.327Z,22.15
2016-12-11T01:45:17.542Z,22.14
2016-12-11T01:45:45.623Z,22.15
2016-12-11T01:46:13.833Z,22.14
2016-12-11T01:46:41.949Z,22.14
2016-12-11T01:47:10.078Z,22.16
2016-12-11T01:47:38.051Z,22.24
2016-12-11T01:48:05.991Z,22.24
2016-12-11T01:48:34.220Z,22.2
2016-12-11T01:49:02.414Z,22.22
2016-12-11T01:49:30.490Z,22.14
2016-12-11T01:49:58.522Z,22.23
2016-12-11T01:50:26.643Z,22.14
2016-12-11T01:50:54.662Z,22.18
2016-12-11T01:51:22.794Z,22.15
2016-12-11T01:51:51.013Z,22.15
2016-12-11T01:52:19.080Z,22.23
2016-12-11T01:52:46.861Z,22.16
2016-12-11T01:53:14.945Z,22.2
2016-12-11T01:53:43.278Z,22.24
2016-12-11T01:54:11.559Z,22.15
2016-12-11T01:54:39.638Z,22.14
2016-12-11T01:55:07.653Z,22.18
2016-12-11T01:55:35.665Z,22.12
2016-12-11T01:56:03.899Z,22.18
2016-12-11T01:56:32.189Z,22.14
2016-12-11T01:57:00.299Z,22.11
2016-12-11T01:57:28.512Z,22.09
2016-12-11T01:57:56.549Z,22.08
2016-12-11T01:58:24.508Z,22.16
2016-12-11T01:58:52.485Z,22.02
2016-12-11T01:59:20.356Z,22.11
2016-12-11T01:59:48.623Z,21.99
2016-12-11T02:00:16.634Z,22.02
2016-12-11T02:00:44.934Z,22.04
2016-12-11T02:01:13.179Z,22.02
2016-12-11T02:01:41.275Z,22.04
2016-12-11T02:02:09.552Z,22
2016-12-11T02:02:37.718Z,21.99
2016-12-11T02:03:05.884Z,22
2016-12-11T02:03:34.109Z,22
2016-12-11T02:04:02.341Z,21.99
2016-12-11T02:04:30.511Z,21.96
2016-12-11T02:04:58.584Z,22
2016-12-11T02:05:26.769Z,22
2016-12-11T02:05:54.946Z,22
2016-12-11T02:06:23.233Z,22
2016-12-11T02:06:51.539Z,21.97
2016-12-11T02:07:19.774Z,21.96
2016-12-11T02:07:48.017Z,21.96
2016-12-11T02:08:16.081Z,21.97
2016-12-11T02:08:44.391Z,21.94
2016-12-11T02:09:12.608Z,21.97
2016-12-11T02:09:40.693Z,21.92
2016-12-11T02:10:08.738Z,21.94
2016-12-11T02:10:36.903Z,21.93
2016-12-11T02:11:05.045Z,21.96
2016-12-11T02:11:33.137Z,21.97
2016-12-11T02:12:01.300Z,21.85
2016-12-11T02:12:29.381Z,21.89
2016-12-11T02:12:57.575Z,21.97
2016-12-11T02:13:25.695Z,21.97
2016-12-11T02:13:54.036Z,21.96
2016-12-11T02:14:22.094Z,21.97
2016-12-11T02:14:50.165Z,22.02
2016-12-11T02:15:18.337Z,21.94
2016-12-11T02:15:46.490Z,21.99
2016-12-11T02:16:14.637Z,21.99
2016-12-11T02:16:42.909Z,21.99
2016-12-11T02:17:11.165Z,21.89
2016-12-11T02:17:39.282Z,21.89
2016-12-11T02:18:07.418Z,21.93
2016-12-11T02:18:35.642Z,21.86
2016-12-11T02:19:04.053Z,21.99
2016-12-11T02:19:32.247Z,21.97
2016-12-11T02:20:00.168Z,21.89
2016-12-11T02:20:28.379Z,21.85
2016-12-11T02:20:56.419Z,21.89
2016-12-11T02:21:24.650Z,21.85
2016-12-11T02:21:52.758Z,21.85
2016-12-11T02:22:20.970Z,21.85
2016-12-11T02:22:48.964Z,21.89
2016-12-11T02:23:16.957Z,21.85
2016-12-11T02:23:45.206Z,21.89
2016-12-11T02:24:13.367Z,21.92
2016-12-11T02:24:41.612Z,21.92
2016-12-11T02:25:09.919Z,21.9
2016-12-11T02:25:37.966Z,21.92
2016-12-11T02:26:06.117Z,21.9
2016-12-11T02:26:34.171Z,21.85
2016-12-11T02:27:02.390Z,21.76
2016-12-11T02:27:30.539Z,21.83
2016-12-11T02:27:58.782Z,21.77
2016-12-11T02:28:26.883Z,21.82
2016-12-11T02:28:55.243Z,21.9
2016-12-11T02:29:23.299Z,21.83
2016-12-11T02:29:51.547Z,21.77
2016-12-11T02:30:19.917Z,21.86
2016-12-11T02:30:48.045Z,21.83
2016-12-11T02:31:16.159Z,21.8
2016-12-11T02:31:44.308Z,21.74
2016-12-11T02:32:12.721Z,21.82
2016-12-11T02:32:40.800Z,21.82
2016-12-11T02:33:09.111Z,21.78
2016-12-11T02:33:37.504Z,21.8
2016-12-11T02:34:05.846Z,21.8
2016-12-11T02:34:34.025Z,21.85
2016-12-11T02:35:02.326Z,21.85
2016-12-11T02:35:30.500Z,21.82
2016-12-11T02:35:58.460Z,21.82
2016-12-11T02:36:26.537Z,21.74
2016-12-11T02:36:54.662Z,21.76
2016-12-11T02:37:22.734Z,21.8
2016-12-11T02:37:50.800Z,21.8
2016-12-11T02:38:19.021Z,21.89
2016-12-11T02:38:47.065Z,21.83
2016-12-11T02:39:15.390Z,21.86
2016-12-11T02:39:43.522Z,21.8
2016-12-11T02:40:11.716Z,21.77
2016-12-11T02:40:39.781Z,21.8
2016-12-11T02:41:07.910Z,21.9
2016-12-11T02:41:36.262Z,21.83
2016-12-11T02:42:04.375Z,21.85
2016-12-11T02:42:32.345Z,21.85
2016-12-11T02:43:00.424Z,21.8
2016-12-11T02:43:28.733Z,21.93
2016-12-11T02:43:56.840Z,21.78
2016-12-11T02:44:25.114Z,21.83
2016-12-11T02:44:53.345Z,21.85
2016-12-11T02:45:21.511Z,21.8
2016-12-11T02:45:49.700Z,21.78
2016-12-11T02:46:17.722Z,21.82
2016-12-11T02:46:45.774Z,21.92
2016-12-11T02:47:13.808Z,21.86
2016-12-11T02:47:41.890Z,21.89
2016-12-11T02:48:10.074Z,21.86
2016-12-11T02:48:38.295Z,21.94
2016-12-11T02:49:06.481Z,21.85
2016-12-11T02:49:34.540Z,21.8
2016-12-11T02:50:02.809Z,21.89
2016-12-11T02:50:31.153Z,21.92
2016-12-11T02:50:59.152Z,21.86
2016-12-11T02:51:27.319Z,21.89
2016-12-11T02:51:55.357Z,21.86
2016-12-11T02:52:23.590Z,21.93
2016-12-11T02:52:51.575Z,21.83
2016-12-11T02:53:19.609Z,21.86
2016-12-11T02:53:48.031Z,21.89
2016-12-11T02:54:16.346Z,21.86
2016-12-11T02:54:44.636Z,21.86
2016-12-11T02:55:12.789Z,21.83
2016-12-11T02:55:41.022Z,21.86
2016-12-11T02:56:09.074Z,21.86
2016-12-11T02:56:37.086Z,21.9
2016-12-11T02:57:05.430Z,21.9
2016-12-11T02:57:33.568Z,21.86
2016-12-11T02:58:01.742Z,21.8
2016-12-11T02:58:29.788Z,21.86
2016-12-11T02:58:57.923Z,21.92
2016-12-11T02:59:26.356Z,21.85
2016-12-11T02:59:54.547Z,21.86
2016-12-11T03:00:22.672Z,21.8
2016-12-11T03:00:50.760Z,21.78
2016-12-11T03:01:18.968Z,21.82
2016-12-11T03:01:47.132Z,21.78
2016-12-11T03:02:15.297Z,21.78
2016-12-11T03:02:43.491Z,21.77
2016-12-11T03:03:11.655Z,21.86
2016-12-11T03:03:40.007Z,21.82
2016-12-11T03:04:08.197Z,21.82
2016-12-11T03:04:36.464Z,21.9
2016-12-11T03:05:04.532Z,21.89
2016-12-11T03:05:32.692Z,21.82
2016-12-11T03:06:00.893Z,21.85
2016-12-11T03:06:29.185Z,21.9
2016-12-11T03:06:57.180Z,21.82
2016-12-11T03:07:25.326Z,21.78
2016-12-11T03:07:53.413Z,21.89
2016-12-11T03:08:21.626Z,21.83
2016-12-11T03:08:49.933Z,21.83
2016-12-11T03:09:17.886Z,21.83
2016-12-11T03:09:46.203Z,21.93
2016-12-11T03:10:14.660Z,21.9
2016-12-11T03:10:42.738Z,21.82
2016-12-11T03:11:10.893Z,21.8
2016-12-11T03:11:39.186Z,21.85
2016-12-11T03:12:07.276Z,21.83
2016-12-11T03:12:35.556Z,21.93
2016-12-11T03:13:03.819Z,21.86
2016-12-11T03:13:31.839Z,21.92
2016-12-11T03:13:59.850Z,21.85
2016-12-11T03:14:28.162Z,21.8
2016-12-11T03:14:56.336Z,21.92
2016-12-11T03:15:24.528Z,21.8
2016-12-11T03:15:52.605Z,21.82
2016-12-11T03:16:20.739Z,21.93
2016-12-11T03:16:49.002Z,21.93
2016-12-11T03:17:17.213Z,21.9
2016-12-11T03:17:45.394Z,21.89
2016-12-11T03:18:13.464Z,21.85
2016-12-11T03:18:41.523Z,21.89
2016-12-11T03:19:09.681Z,21.82
2016-12-11T03:19:37.959Z,21.96
2016-12-11T03:20:05.981Z,21.99
2016-12-11T03:20:34.097Z,21.99
2016-12-11T03:21:02.297Z,21.96
2016-12-11T03:21:30.526Z,21.93
2016-12-11T03:21:58.714Z,21.97
2016-12-11T03:22:26.877Z,21.97
2016-12-11T03:22:55.048Z,21.99
2016-12-11T03:23:23.094Z,22.02
2016-12-11T03:23:51.126Z,22.04
2016-12-11T03:24:19.367Z,21.97
2016-12-11T03:24:47.849Z,22.05
2016-12-11T03:25:16.077Z,22.05
2016-12-11T03:25:44.058Z,22
2016-12-11T03:26:12.221Z,22.11
2016-12-11T03:26:40.327Z,22.12
2016-12-11T03:27:08.549Z,22
2016-12-11T03:27:36.503Z,22.05
2016-12-11T03:28:04.694Z,22.09
2016-12-11T03:28:32.669Z,22
2016-12-11T03:29:00.658Z,22.07
2016-12-11T03:29:28.700Z,22.08
2016-12-11T03:29:56.925Z,22.15
2016-12-11T03:30:25.315Z,22.08
2016-12-11T03:30:53.605Z,22.16
2016-12-11T03:31:21.810Z,22.09
2016-12-11T03:31:50.070Z,22.18
2016-12-11T03:32:18.238Z,22.09
2016-12-11T03:32:46.375Z,22.12
2016-12-11T03:33:14.519Z,22.14
2016-12-11T03:33:42.957Z,22.09
2016-12-11T03:34:11.078Z,22.16
2016-12-11T03:34:39.256Z,22.16
2016-12-11T03:35:07.567Z,22.16
2016-12-11T03:35:35.647Z,22.12
2016-12-11T03:36:03.814Z,22.12
2016-12-11T03:36:31.916Z,22.2
2016-12-11T03:37:00.558Z,22.16
2016-12-11T03:37:28.663Z,22.15
2016-12-11T03:37:56.927Z,22.15
2016-12-11T03:38:25.014Z,22.14
2016-12-11T03:38:53.080Z,22.15
2016-12-11T03:39:21.235Z,22.16
2016-12-11T03:39:49.505Z,22.23
2016-12-11T03:40:17.867Z,22.22
2016-12-11T03:40:45.902Z,22.2
2016-12-11T03:41:14.004Z,22.24
2016-12-11T03:41:42.424Z,22.2
2016-12-11T03:42:10.701Z,22.2
2016-12-11T03:42:38.918Z,22.24
2016-12-11T03:43:07.173Z,22.23
2016-12-11T03:43:35.325Z,22.29
2016-12-11T03:44:03.432Z,22.2
2016-12-11T03:44:31.803Z,22.15
2016-12-11T03:45:00.051Z,22.18
2016-12-11T03:45:28.109Z,22.16
2016-12-11T03:45:56.243Z,22.2
2016-12-11T03:46:24.392Z,22.2
2016-12-11T03:46:52.628Z,22.16
2016-12-11T03:47:20.771Z,22.14
2016-12-11T03:47:48.973Z,22.16
2016-12-11T03:48:17.222Z,22.12
2016-12-11T03:48:45.315Z,22.24
2016-12-11T03:49:13.388Z,22.14
2016-12-11T03:49:41.518Z,22.23
2016-12-11T03:50:09.885Z,22.15
2016-12-11T03:50:38.220Z,22.2
2016-12-11T03:51:06.307Z,22.22
2016-12-11T03:51:34.425Z,22.12
2016-12-11T03:52:02.722Z,22.16
2016-12-11T03:52:30.839Z,22.18
2016-12-11T03:52:59.094Z,22.15
2016-12-11T03:53:27.049Z,22.09
2016-12-11T03:53:55.433Z,22.2
2016-12-11T03:54:23.517Z,22.11
2016-12-11T03:54:51.654Z,22.15
2016-12-11T03:55:20.072Z,22.08
2016-12-11T03:55:48.486Z,22.12
2016-12-11T03:56:16.658Z,22.15
2016-12-11T03:56:44.638Z,22.02
2016-12-11T03:57:13.044Z,22.09
2016-12-11T03:57:41.309Z,22
2016-12-11T03:58:09.487Z,22.02
2016-12-11T03:58:37.734Z,21.99
2016-12-11T03:59:05.950Z,22.09
2016-12-11T03:59:34.021Z,22.15
2016-12-11T04:00:02.251Z,22.02
2016-12-11T04:00:30.477Z,22
2016-12-11T04:00:58.587Z,22.07
2016-12-11T04:01:26.723Z,22.02
2016-12-11T04:01:55.013Z,22.02
2016-12-11T04:02:23.290Z,22.14
2016-12-11T04:02:51.477Z,22.02
2016-12-11T04:03:19.680Z,22.02
2016-12-11T04:03:47.755Z,22.02
2016-12-11T04:04:15.889Z,22
2016-12-11T04:04:44.021Z,22.09
2016-12-11T04:05:12.400Z,22.08
2016-12-11T04:05:40.471Z,22.09
2016-12-11T04:06:08.756Z,22
2016-12-11T04:06:36.815Z,22
2016-12-11T04:07:05.033Z,22.04
2016-12-11T04:07:33.105Z,22.02
2016-12-11T04:08:01.342Z,22.05
2016-12-11T04:08:29.397Z,22
2016-12-11T04:08:57.584Z,22.02
2016-12-11T04:09:25.779Z,22
2016-12-11T04:09:53.868Z,21.97
2016-12-11T04:10:22.086Z,21.97
2016-12-11T04:10:50.253Z,21.99
2016-12-11T04:11:18.336Z,21.97
2016-12-11T04:11:46.486Z,22
2016-12-11T04:12:14.685Z,22.04
2016-12-11T04:12:42.636Z,22
2016-12-11T04:13:11.004Z,22.05
2016-12-11T04:13:39.101Z,22
2016-12-11T04:14:07.150Z,22
2016-12-11T04:14:35.145Z,21.99
2016-12-11T04:15:03.199Z,22.05
2016-12-11T04:15:31.471Z,21.96
2016-12-11T04:15:59.606Z,22.02
2016-12-11T04:16:27.700Z,22
2016-12-11T04:16:55.960Z,21.96
2016-12-11T04:17:24.116Z,22.05
2016-12-11T04:17:52.191Z,21.99
2016-12-11T04:18:20.476Z,22.05
2016-12-11T04:18:48.597Z,22
2016-12-11T04:19:16.672Z,21.97
2016-12-11T04:19:44.832Z,22
2016-12-11T04:20:12.898Z,22.02
2016-12-11T04:20:41.160Z,22.05
2016-12-11T04:21:09.353Z,22.05
2016-12-11T04:21:37.520Z,22
2016-12-11T04:22:05.810Z,22
2016-12-11T04:22:34.028Z,21.97
2016-12-11T04:23:02.212Z,21.99
2016-12-11T04:23:30.468Z,22
2016-12-11T04:23:58.560Z,21.96
2016-12-11T04:24:26.665Z,21.94
2016-12-11T04:24:54.731Z,21.96
2016-12-11T04:25:22.893Z,21.97
2016-12-11T04:25:51.069Z,21.96
2016-12-11T04:26:19.028Z,21.94
2016-12-11T04:26:46.914Z,21.97
2016-12-11T04:27:15.074Z,22
2016-12-11T04:27:43.268Z,21.94
2016-12-11T04:28:11.451Z,21.96
2016-12-11T04:28:39.732Z,22
2016-12-11T04:29:07.888Z,22.04
2016-12-11T04:29:35.979Z,22.05
2016-12-11T04:30:04.047Z,21.94
2016-12-11T04:30:32.331Z,21.99
2016-12-11T04:31:00.602Z,22.02
2016-12-11T04:31:28.765Z,22
2016-12-11T04:31:56.899Z,22
2016-12-11T04:32:24.849Z,22
2016-12-11T04:32:52.970Z,22.05
2016-12-11T04:33:21.151Z,22.11
2016-12-11T04:33:49.300Z,22.02
2016-12-11T04:34:17.505Z,22.05
2016-12-11T04:34:45.638Z,22.02
2016-12-11T04:35:13.890Z,22.15
2016-12-11T04:35:42.196Z,21.99
2016-12-11T04:36:10.340Z,22.07
2016-12-11T04:36:38.243Z,22.02
2016-12-11T04:37:06.477Z,22.09
2016-12-11T04:37:34.576Z,22
2016-12-11T04:38:02.787Z,21.99
2016-12-11T04:38:30.872Z,22.02
2016-12-11T04:38:58.953Z,22.04
2016-12-11T04:39:27.349Z,22
2016-12-11T04:39:55.534Z,22
2016-12-11T04:40:23.757Z,22.05
2016-12-11T04:40:52.090Z,22.02
2016-12-11T04:41:20.253Z,22.02
2016-12-11T04:41:48.335Z,22.02
2016-12-11T04:42:16.386Z,21.96
2016-12-11T04:42:44.538Z,21.97
2016-12-11T04:43:12.442Z,21.99
2016-12-11T04:43:40.577Z,21.99
2016-12-11T04:44:08.543Z,22.02
2016-12-11T04:44:36.667Z,22
2016-12-11T04:45:05.067Z,21.96
2016-12-11T04:45:33.232Z,22
2016-12-11T04:46:01.317Z,21.97
2016-12-11T04:46:29.409Z,21.96
2016-12-11T04:46:57.451Z,21.99
2016-12-11T04:47:25.482Z,21.96
2016-12-11T04:47:53.647Z,21.93
2016-12-11T04:48:21.722Z,22
2016-12-11T04:48:49.730Z,22
2016-12-11T04:49:17.828Z,21.97
2016-12-11T04:49:45.846Z,22.02
2016-12-11T04:50:13.897Z,22.02
2016-12-11T04:50:41.936Z,21.97
2016-12-11T04:51:10.052Z,21.97
2016-12-11T04:51:38.101Z,21.94
2016-12-11T04:52:06.219Z,21.96
2016-12-11T04:52:34.400Z,21.97
2016-12-11T04:53:02.593Z,21.85
2016-12-11T04:53:30.796Z,21.9
2016-12-11T04:53:58.985Z,22.02
2016-12-11T04:54:27.231Z,21.92
2016-12-11T04:54:55.467Z,21.99
2016-12-11T04:55:23.629Z,22
2016-12-11T04:55:52.022Z,21.94
2016-12-11T04:56:20.194Z,21.93
2016-12-11T04:56:48.132Z,21.93
2016-12-11T04:57:16.311Z,21.86
2016-12-11T04:57:44.472Z,21.94
2016-12-11T04:58:12.730Z,22.02
2016-12-11T04:58:40.728Z,22.05
2016-12-11T04:59:08.812Z,21.94
2016-12-11T04:59:37.070Z,22.02
2016-12-11T05:00:05.102Z,21.94
2016-12-11T05:00:33.265Z,21.93
2016-12-11T05:01:01.355Z,21.94
2016-12-11T05:01:29.427Z,21.93
2016-12-11T05:01:57.604Z,21.92
2016-12-11T05:02:25.784Z,21.92
2016-12-11T05:02:54.065Z,21.94
2016-12-11T05:03:21.937Z,21.97
2016-12-11T05:03:50.077Z,22
2016-12-11T05:04:18.068Z,21.96
2016-12-11T05:04:46.314Z,21.97
2016-12-11T05:05:14.488Z,21.96
2016-12-11T05:05:42.441Z,21.99
2016-12-11T05:06:10.579Z,22
2016-12-11T05:06:38.724Z,22.05
2016-12-11T05:07:06.839Z,22.05
2016-12-11T05:07:34.986Z,21.97
2016-12-11T05:08:03.054Z,21.93
2016-12-11T05:08:31.240Z,21.94
2016-12-11T05:08:59.519Z,21.97
2016-12-11T05:09:27.731Z,21.97
2016-12-11T05:09:55.917Z,21.96
2016-12-11T05:10:24.202Z,22.02
2016-12-11T05:10:52.571Z,21.99
2016-12-11T05:11:20.942Z,21.97
2016-12-11T05:11:49.220Z,21.97
2016-12-11T05:12:17.418Z,22.02
2016-12-11T05:12:45.634Z,22
2016-12-11T05:13:13.928Z,22.02
2016-12-11T05:13:42.177Z,22
2016-12-11T05:14:10.105Z,21.97
2016-12-11T05:14:38.140Z,21.97
2016-12-11T05:15:06.585Z,22.05
2016-12-11T05:15:34.860Z,22.05
2016-12-11T05:16:03.035Z,21.97
2016-12-11T05:16:31.074Z,22.02
2016-12-11T05:16:59.033Z,21.99
2016-12-11T05:17:27.188Z,22.04
2016-12-11T05:17:55.286Z,21.99
2016-12-11T05:18:23.580Z,21.97
2016-12-11T05:18:51.791Z,21.99
2016-12-11T05:19:20.041Z,22
2016-12-11T05:19:48.400Z,22
2016-12-11T05:20:16.519Z,22.11
2016-12-11T05:20:44.652Z,22.02
2016-12-11T05:21:12.823Z,22.02
2016-12-11T05:21:41.012Z,21.96
2016-12-11T05:22:09.199Z,22.15
2016-12-11T05:22:37.441Z,22.2
2016-12-11T05:23:05.522Z,22.12
2016-12-11T05:23:33.861Z,22.12
2016-12-11T05:24:02.023Z,22.11
2016-12-11T05:24:29.956Z,22.15
2016-12-11T05:24:58.111Z,22.15
2016-12-11T05:25:26.337Z,22.16
2016-12-11T05:25:54.511Z,22.18
2016-12-11T05:26:22.588Z,22.2
2016-12-11T05:26:50.967Z,22.15
2016-12-11T05:27:19.031Z,22.14
2016-12-11T05:27:47.086Z,22.18
2016-12-11T05:28:15.275Z,22.14
2016-12-11T05:28:43.562Z,22.14
2016-12-11T05:29:11.729Z,22.26
2016-12-11T05:29:39.969Z,22.14
2016-12-11T05:30:08.150Z,22.15
2016-12-11T05:30:36.309Z,22.22
2016-12-11T05:31:04.550Z,22.24
2016-12-11T05:31:32.712Z,22.15
2016-12-11T05:32:00.900Z,22.24
2016-12-11T05:32:29.111Z,22.16
2016-12-11T05:32:57.405Z,22.18
2016-12-11T05:33:25.602Z,22.18
2016-12-11T05:33:53.629Z,22.33
2016-12-11T05:34:21.764Z,22.23
2016-12-11T05:34:49.756Z,22.24
2016-12-11T05:35:18.110Z,22.26
2016-12-11T05:35:46.407Z,22.24
2016-12-11T05:36:14.626Z,22.3
2016-12-11T05:36:42.771Z,22.3
2016-12-11T05:37:10.805Z,22.24
2016-12-11T05:37:38.981Z,22.2
2016-12-11T05:38:07.071Z,22.27
2016-12-11T05:38:35.210Z,22.27
2016-12-11T05:39:03.431Z,22.23
2016-12-11T05:39:31.672Z,22.24
2016-12-11T05:39:59.847Z,22.24
2016-12-11T05:40:28.006Z,22.23
2016-12-11T05:40:56.047Z,22.14
2016-12-11T05:41:24.224Z,22.22
2016-12-11T05:41:52.423Z,22.18
2016-12-11T05:42:20.569Z,22.26
2016-12-11T05:42:48.735Z,22.34
2016-12-11T05:43:16.751Z,22.23
2016-12-11T05:43:44.912Z,22.26
2016-12-11T05:44:12.978Z,22.24
2016-12-11T05:44:41.122Z,22.26
2016-12-11T05:45:09.336Z,22.27
2016-12-11T05:45:37.408Z,22.23
2016-12-11T05:46:05.491Z,22.22
2016-12-11T05:46:33.637Z,22.36
2016-12-11T05:47:01.897Z,22.2
2016-12-11T05:47:30.054Z,22.27
2016-12-11T05:47:58.207Z,22.23
2016-12-11T05:48:26.372Z,22.18
2016-12-11T05:48:54.555Z,22.34
2016-12-11T05:49:22.677Z,22.26
2016-12-11T05:49:50.857Z,22.33
2016-12-11T05:50:19.041Z,22.27
2016-12-11T05:50:47.237Z,22.29
2016-12-11T05:51:15.511Z,22.34
2016-12-11T05:51:43.634Z,22.34
2016-12-11T05:52:11.748Z,22.31
2016-12-11T05:52:39.923Z,22.26
2016-12-11T05:53:08.160Z,22.36
2016-12-11T05:53:36.405Z,22.34
2016-12-11T05:54:04.373Z,22.36
2016-12-11T05:54:32.613Z,22.36
2016-12-11T05:55:00.856Z,22.31
2016-12-11T05:55:29.036Z,22.34
2016-12-11T05:55:57.107Z,22.23
2016-12-11T05:56:25.631Z,22.41
2016-12-11T05:56:53.742Z,22.34
2016-12-11T05:57:21.919Z,22.36
2016-12-11T05:57:50.188Z,22.29
2016-12-11T05:58:18.371Z,22.33
2016-12-11T05:58:46.449Z,22.34
2016-12-11T05:59:14.686Z,22.29
2016-12-11T05:59:42.809Z,22.39
2016-12-11T06:00:10.882Z,22.34
2016-12-11T06:00:38.939Z,22.29
2016-12-11T06:01:07.087Z,22.33
2016-12-11T06:01:35.402Z,22.33
2016-12-11T06:02:03.584Z,22.16
2016-12-11T06:02:31.897Z,22.27
2016-12-11T06:02:59.895Z,22.26
2016-12-11T06:03:28.360Z,22.18
2016-12-11T06:03:56.369Z,22.27
2016-12-11T06:04:24.615Z,22.22
2016-12-11T06:04:52.938Z,22.24
2016-12-11T06:05:21.168Z,22.23
2016-12-11T06:05:49.273Z,22.33
2016-12-11T06:06:17.344Z,22.18